Montrose, Colorado
Current Conditions -  °F | °C
As of 11:53 PM on Wednesday 26 Nov 2014 (Local Time) from KMTJ Reporting Station
Clear Clear  
Wind Chill: 23°   Ceiling: Unl
Heat Index: 28°   Visibility: 10mi
Dew Point: 22°   Wind: 5mph
Humidity: 78%   Direction: 150°SSE
Pressure: 30.5"   Gusts: NA
Location:  38.48°N, 107.87°W
Report Text: KMTJ 270653Z AUTO 15004KT 10SM CLR M02/M06 A3050 RMK AO2 SLP314 T10221056 401221033
Loading
Personal Weather Stations






























Interactive Weather Map New forecast layout! Learn more

10-Day Weather Forecast

Advertisements
Track Severe Weather on mobile